Aviation Digital Data Service (ADDS)

Output produced by METARs form (0605 UTC 25 June 2018)
found at http://www.aviationweather.gov/adds/metars/
 
LTAF 250550Z VRB03KT 9999 SCT035 27/22 Q1008 NOSIG RMK RWY23 23003KT 160V290
TAF LTAF 250440Z 2506/2606 VRB02KT 9999 SCT035 
     BECMG 2508/2510 21012KT 
     BECMG 2515/2517 VRB02KT
       
LTCP 250550Z 07010KT CAVOK 31/12 Q1008
TAF LTCP 250440Z 2506/2515 VRB02KT 9999 SCT040
       
LTBJ 250550Z 02014KT CAVOK 25/15 Q1010 NOSIG RMK RWY16 01012KT
TAF LTBJ 250440Z 2506/2606 36013KT CAVOK 
     BECMG 2506/2509 SCT030 
     PROB40 
     TEMPO 2510/2514 TS FEW020CB 
     BECMG 2517/2520 VRB02KT CAVOK
       
TAF LTAH 250440Z 2506/2515 VRB02KT 9999 SCT040 SCT100 
     TEMPO 2507/2511 -SHRA BKN030 
     TEMPO 2511/2515 33013KT -TSRA FEW025CB BKN030
       
LTCO 250550Z 02008KT 350V070 CAVOK 21/14 Q1018
TAF LTCO 250440Z 2506/2515 01007KT CAVOK 
     BECMG 2506/2509 SCT040 
     BECMG 2509/2511 FEW030CB SCT040
       
TAF LTBT 250440Z 2506/2515 VRB02KT 9999 FEW040 SCT100 
     BECMG 2511/2512 35012KT
       
TAF LTAE 250440Z 2506/2515 01008KT 9999 SCT040 
     TEMPO 2512/2515 35015G25KT -TSRA FEW030CB BKN035
       
LTBY 250450Z 25005KT 210V270 9999 FEW035 BKN200 17/15 Q1015
TAF LTBY 250440Z 2506/2515 VRB02KT 9999 SCT040 SCT100 
     TEMPO 2509/2512 -SHRA BKN030 
     TEMPO 2512/2515 33013KT -TSRA FEW025CB BKN030
       
LTAI 250550Z 18004KT 140V230 9999 FEW030 27/22 Q1008 NOSIG RMK RWY18C VRB03KT RWY36R 10005KT 070V130 RWY18L 15005KT 130V200
TAF COR LTAI 250440Z 2506/2606 36004KT CAVOK 
     BECMG 2506/2509 16010KT FEW030 
     BECMG 2515/2518 34006KT CAVOK
       
LTBA 250550Z 04014KT 360V070 9999 FEW040 SCT100 23/13 Q1015 NOSIG RMK RWY17L 04016KT 010V070 RWY05 02017KT RWY23 04016KT
TAF LTBA 250440Z 2506/2612 04015G27KT 9999 FEW030 BKN070 
     BECMG 2516/2519 04012KT BKN030 
     BECMG 2606/2608 04015G25KT
       
LTBF 250550Z 04010KT 9999 SCT035 22/16 Q1014 NOSIG
TAF LTBF 250440Z 2506/2515 01008KT 9999 SCT035 SCT100
       
TAF LTBG 250440Z 2506/2515 04017KT 9999 SCT035 SCT100 
     BECMG 2509/2511 CAVOK
       
LTCJ 250520Z 24007KT CAVOK 28/16 Q1007 RMK RWY20 26006KT 230V310
TAF LTCJ 250440Z 2506/2606 18009KT CAVOK 
     BECMG 2507/2510 FEW040 
     BECMG 2514/2517 CAVOK
       
LTBH 250550Z 05016KT 360V070 9999 SCT035 BKN100 23/15 Q1014
TAF LTBH 250440Z 2506/2515 04012KT 9999 SCT035 
     BECMG 2508/2510 CAVOK
       
LTAY 250550Z 00000KT 9999 FEW035 21/16 Q1014
TAF LTAY 250440Z 2506/2515 VRB02KT 9999 SCT035 BKN100 
     PROB40 
     TEMPO 2510/2514 -TSRA FEW020CB BKN030
       
LTFH 250550Z 29005KT 9999 SCT028 BKN090 22/17 Q1015 NOSIG
TAF LTFH 250440Z 2506/2515 27008KT 9999 SCT028 BKN090 
     TEMPO 2506/2509 -SHRA BKN026 BKN080
       
TAF LTBL 250440Z 2506/2515 VRB02KT 9999 FEW040 SCT100 
     BECMG 2511/2512 33012KT
       
LTBU 250550Z 03016KT 9999 FEW030 SCT100 20/13 Q1016 RMK RWY23 /////KT
TAF LTBU 250440Z 2506/2606 04012KT 9999 FEW030 BKN070 
     BECMG 2506/2509 03015G27KT 
     BECMG 2516/2519 04012KT BKN030
       
LTBS 250550Z 35003KT 270V050 CAVOK 28/17 Q1008 NOSIG RMK RWY19 01003KT 310V030
TAF LTBS 250440Z 2506/2606 VRB02KT CAVOK 
     BECMG 2507/2509 22012KT FEW030 
     BECMG 2516/2518 VRB02KT CAVOK
       
LTCC 250550Z 08005KT 010V120 CAVOK 30/11 Q1008 NOSIG RMK RWY16 04004KT 350V100
TAF LTCC 250440Z 2506/2606 18009KT CAVOK 
     BECMG 2507/2510 FEW040 
     BECMG 2514/2517 CAVOK
       
LTFD 250550Z 05020KT 9999 FEW035 SCT100 22/15 Q1013
TAF LTFD 250440Z 2506/2515 07015KT 9999 FEW035 SCT100
       
LTCA 250550Z VRB03KT CAVOK 29/13 Q1011 NOSIG
TAF LTCA 250440Z 2506/2515 VRB02KT 9999 SCT035
       
LTAT 250550Z 11004KT 9999 FEW040 28/13 Q1011 NOSIG RMK RWY03 09004KT
TAF LTAT 250440Z 2506/2606 VRB02KT 9999 SCT040 
     PROB30 
     TEMPO 2515/2519 31015KT TS FEW027CB BKN035 
     BECMG 2520/2521 CAVOK
       
LTAU 250550Z 07005KT 020V120 CAVOK 21/12 Q1015 NOSIG RMK RWY07 06007KT 020V090
TAF LTAU 250440Z 2506/2606 VRB02KT CAVOK 
     BECMG 2506/2508 SCT040 
     PROB40 
     TEMPO 2513/2517 VRB15G25KT -TSRA FEW030CB BKN035 
     BECMG 2520/2523 CAVOK
       
LTCD 250550Z VRB03KT 9999 FEW045 24/12 Q1015 NOSIG
TAF LTCD 250440Z 2506/2515 VRB02KT 9999 SCT040 
     BECMG 2506/2509 FEW033CB SCT040 
     TEMPO 2509/2512 16015KT TS 
     PROB30 
     TEMPO 2512/2515 -TSRA
       
LTCE 250550Z 06013KT 9999 SCT030 19/12 Q1020 NOSIG RMK RWY08R 06012KT RWY26R 07013KT RWY08L 07010KT
TAF LTCE 250440Z 2506/2606 07009KT 9999 SCT030 
     BECMG 2506/2509 FEW030CB BKN035 
     TEMPO 2509/2512 TS 
     TEMPO 2512/2516 -TSRA 
     BECMG 2516/2519 CAVOK
       
LTAC 250550Z 02011KT 9999 FEW040 SCT100 20/13 Q1016 NOSIG RMK RWY21L 01015KT RWY03L 01012KT RWY21R 03015KT
TAF LTAC 250440Z 2506/2606 VRB02KT 9999 SCT040 
     PROB40 
     TEMPO 2509/2513 02015KT -TSRA FEW025CB BKN030
       
TAF LTBI 250440Z 2506/2515 VRB02KT 9999 SCT040 SCT100 
     TEMPO 2509/2512 -SHRA BKN030 
     TEMPO 2512/2515 33013KT -TSRA FEW025CB BKN030
       
TAF LTAD 250440Z 2506/2515 06008KT 9999 SCT040 
     TEMPO 2512/2515 -TSRA FEW030CB BKN035
       
TAF LTBK 250440Z 2506/2515 34012KT CAVOK 
     BECMG 2506/2509 SCT030 
     PROB40 
     TEMPO 2510/2514 TS FEW020CB
       
TAF LTAB 250440Z 2506/2515 07008KT CAVOK 
     BECMG 2506/2507 SCT040 
     PROB30 
     TEMPO 2513/2515 -TSRA FEW025CB BKN035
       
LTAG 250550Z 20005KT 9999 BKN030 25/22 Q1008 NOSIG
TAF LTAG 250440Z 2506/2606 VRB02KT 9999 SCT035 
     TEMPO 2511/2515 20012KT
       
LTCN 250550Z 28012KT 250V310 CAVOK 26/17 Q1009 NOSIG
TAF LTCN 250440Z 2506/2515 31012KT CAVOK 
     BECMG 2509/2511 FEW040
       
TAF LTFA 250440Z 2506/2515 VRB02KT 9999 FEW040 SCT100 
     BECMG 2511/2512 33012KT
       
LTAZ 250550Z VRB02KT CAVOK 20/14 Q1015 RMK RWY29 VRB02KT
TAF LTAZ 250440Z 2506/2606 03008KT CAVOK 
     BECMG 2506/2509 SCT040 
     PROB40 
     TEMPO 2513/2517 VRB15G25KT -TSRA FEW030CB BKN035 
     TEMPO 2517/2521 03018G30KT 
     BECMG 2520/2523 CAVOK
       
LTCF 250550Z 03006KT 350V070 9999 FEW035 18/13 Q1021
TAF LTCF 250440Z 2506/2515 05007KT CAVOK 
     BECMG 2506/2508 SCT035 
     BECMG 2508/2511 FEW030CB SCT035 
     TEMPO 2512/2515 -TSRA
       
LTAL 250550Z VRB02KT 5000 BR SCT004 BKN022 BKN070 16/14 Q1017
TAF LTAL 250440Z 2506/2515 02009KT 6000 SCT005 BKN023 
     TEMPO 2510/2514 -SHRA
       
LTAN 250550Z 01012KT CAVOK 22/14 Q1015 NOSIG
TAF LTAN 250440Z 2506/2515 02009KT CAVOK 
     BECMG 2507/2509 SCT040 BKN100 
     TEMPO 2510/2512 -TSRA FEW025CB BKN035
       
TAF LTBN 250440Z 2506/2515 VRB02KT 9999 SCT040 SCT100 
     TEMPO 2508/2512 -SHRA BKN030 
     TEMPO 2512/2515 33013KT -TSRA FEW025CB BKN030
       
LTCR 250550Z VRB03KT CAVOK 29/17 Q1008
TAF LTCR 250440Z 2506/2515 20009KT CAVOK
       
LTAP 250550Z 04011KT 010V080 9999 FEW021 BKN040 22/14 Q1014 NOSIG RMK RWY23 05011KT
TAF LTAP 250440Z 2506/2606 03015KT 9999 BKN036 
     BECMG 2508/2511 SCT040 
     PROB40 
     TEMPO 2511/2514 03025KT 
     BECMG 2519/2522 03005KT
       
LTFE 250550Z VRB02KT CAVOK 26/17 Q1009 NOSIG RMK RWY10 31003KT 270V350
TAF LTFE 250440Z 2506/2606 VRB02KT CAVOK 
     BECMG 2507/2510 23015KT FEW035 
     TEMPO 2511/2514 SCT030TCU 
     BECMG 2515/2517 CAVOK 
     BECMG 2517/2519 VRB02KT 
     BECMG 2522/2602 SCT035
       
LTCK 250550Z 23003KT 120V270 CAVOK 25/13 Q1015
TAF LTCK 250440Z 2506/2515 VRB02KT 9999 FEW040
       
LTAJ 250550Z 25005KT 210V280 CAVOK 29/15 Q1009 NOSIG RMK RWY10 25006KT 190V290
TAF LTAJ 250440Z 2506/2606 24008KT CAVOK
       
LTFJ 250550Z 04014KT 9999 SCT030 BKN100 22/14 Q1015 NOSIG RMK RWY24 04014KT
TAF LTFJ 250440Z 2506/2606 03012KT 9999 SCT035 BKN090 
     BECMG 2506/2509 BKN030 
     TEMPO 2510/2514 03016G26KT 
     BECMG 2513/2516 SCT035
       
TAF LTBX 250440Z 2506/2515 03012KT 9999 SCT035 BKN090 
     BECMG 2506/2509 BKN030 
     TEMPO 2510/2514 03016G26KT
       
LTCL 250550Z 20002KT CAVOK 32/11 Q1008
TAF LTCL 250440Z 2506/2515 18009KT CAVOK
       
LTCM 250550Z 02001KT 9999 SCT030 23/15 Q1015
TAF LTCM 250440Z 2506/2515 02007KT 9999 SCT033 SCT100
       
TAF LTAV 250440Z 2506/2515 VRB02KT 9999 SCT040 SCT100 
     TEMPO 2509/2512 -SHRA BKN030 
     TEMPO 2512/2515 33013KT -TSRA FEW025CB BKN030
       
LTFC 250550Z 00000KT 9999 SCT035 23/16 Q1013 RMK RWY23 27004KT 190V350
TAF LTFC 250440Z 2506/2606 30006KT 9999 SCT035 
     BECMG 2507/2510 21010KT 
     PROB30 
     TEMPO 2513/2515 -TSRA FEW020CB BKN030 
     BECMG 2515/2518 34006KT 
     BECMG 2518/2520 CAVOK
       
LTAW 250550Z VRB06KT 9999 BKN033 24/15 Q1014
TAF LTAW 250440Z 2506/2515 07006KT 9999 FEW020 BKN033 
     BECMG 2508/2511 SCT040
       
LTBQ 250550Z VRB02KT 6000 -DZ SCT012 BKN020 18/18 Q1016 NOSIG
TAF LTBQ 250440Z 2506/2515 VRB02KT 8000 FEW015 BKN025 
     BECMG 2510/2513 04012KT FEW025TCU BKN030 
     PROB30 
     TEMPO 2513/2515 -TSRA FEW025CB BKN030
       
LTCG 250550Z 31004KT 280V010 9999 FEW020 BKN033 24/20 Q1013 NOSIG RMK RWY29 32005KT
TAF LTCG 250440Z 2506/2606 VRB02KT 9999 BKN035 
     TEMPO 2506/2510 30012KT -SHRA SCT015 BKN028 
     PROB40 2510/2514 30012KT -TSRA FEW020CB BKN028 
     TEMPO 2514/2518 -SHRA SCT012 BKN028
       
LTCI 250550Z 29006KT 9999 FEW040 23/13 Q1017 NOSIG
TAF LTCI 250440Z 2506/2515 28009KT 9999 FEW040
       
TAF LTBP 250440Z 2506/2515 03012KT 9999 SCT030 BKN070
       
LTBR 250550Z VRB02KT 9999 SCT030 SCT100 20/16 Q1014 NOSIG RMK RWY07 08003KT 360V120
TAF LTBR 250440Z 2506/2606 VRB02KT 9999 SCT035 
     TEMPO 2508/2511 36012KT -TSRA FEW027CB BKN030 
     BECMG 2511/2513 36012KT 
     PROB40 
     TEMPO 2513/2517 30015G25KT -TSRA FEW027CB BKN030 
     BECMG 2517/2520 VRB02KT 
     PROB40 2522/2602 -TSRA FEW025CB BKN030